Time;durP1;ratioP1;P1;durP2;ratioP2;P2;SDS_P1;SDS_P2;PMS_P1;PMS_P2;Temp;Humidity;BMP_temperature;BMP_pressure;BME280_temperature;BME280_humidity;BME280_pressure;Samples;Min_cycle;Max_cycle;Signal;HPM_P1;HPM_P2
2021/04/20 00:02:14;0.00;0.00;0.62;0.00;0.00;0.62;8.17;7.37;;;25.60;24.60;;;;;;2268523;61;20583;-65
2021/04/20 00:04:40;0.00;0.00;0.62;0.00;0.00;0.62;6.97;6.27;;;25.60;24.60;;;;;;2269251;61;20358;-67
2021/04/20 00:07:08;0.00;0.00;0.62;0.00;0.00;0.62;6.60;6.00;;;25.50;24.50;;;;;;2268470;61;20426;-66
2021/04/20 00:09:34;0.00;0.00;0.62;0.00;0.00;0.62;7.13;6.43;;;25.50;24.50;;;;;;2269149;61;20358;-65
2021/04/20 00:12:02;0.00;0.00;0.62;0.00;0.00;0.62;6.73;6.17;;;25.50;24.50;;;;;;2269115;61;20357;-64
2021/04/20 00:14:29;0.00;0.00;0.62;0.00;0.00;0.62;7.30;6.60;;;25.50;24.50;;;;;;2268261;61;20385;-66
2021/04/20 00:16:56;0.00;0.00;0.62;0.00;0.00;0.62;7.40;6.67;;;25.50;24.50;;;;;;2269202;61;20345;-64
2021/04/20 00:19:22;0.00;0.00;0.62;0.00;0.00;0.62;6.97;6.27;;;25.40;24.50;;;;;;2269177;61;20360;-64
2021/04/20 00:21:49;0.00;0.00;0.62;0.00;0.00;0.62;6.83;6.23;;;25.40;24.50;;;;;;2268296;61;20429;-65
2021/04/20 00:24:16;0.00;0.00;0.62;0.00;0.00;0.62;7.70;7.00;;;25.40;24.50;;;;;;2269105;61;20378;-64
2021/04/20 00:26:42;0.00;0.00;0.62;0.00;0.00;0.62;5.90;5.40;;;25.40;24.50;;;;;;2269083;61;20377;-65
2021/04/20 00:29:10;0.00;0.00;0.62;0.00;0.00;0.62;7.13;6.50;;;25.40;24.50;;;;;;2268349;61;20443;-66
2021/04/20 00:31:36;0.00;0.00;0.62;0.00;0.00;0.62;7.50;6.70;;;25.30;24.40;;;;;;2269096;61;20373;-65
2021/04/20 00:34:03;0.00;0.00;0.62;0.00;0.00;0.62;6.80;6.20;;;25.30;24.40;;;;;;2269035;61;20396;-66
2021/04/20 00:36:29;0.00;0.00;0.62;0.00;0.00;0.62;7.30;6.60;;;25.30;24.40;;;;;;2268466;61;20350;-66
2021/04/20 00:38:56;0.00;0.00;0.62;0.00;0.00;0.62;7.43;6.73;;;25.30;24.40;;;;;;2268993;61;20357;-64
2021/04/20 00:41:24;0.00;0.00;0.62;0.00;0.00;0.62;7.63;6.93;;;25.20;24.40;;;;;;2268966;61;20483;-66
2021/04/20 00:43:51;0.00;0.00;0.62;0.00;0.00;0.62;7.20;6.50;;;25.20;24.40;;;;;;2264621;61;20754;-63
2021/04/20 00:46:21;0.00;0.00;0.62;0.00;0.00;0.62;7.50;6.80;;;25.20;24.40;;;;;;2269188;61;20859;-65
2021/04/20 00:48:48;0.00;0.00;0.62;0.00;0.00;0.62;8.17;7.37;;;25.20;24.40;;;;;;2269136;61;20432;-66
2021/04/20 00:51:15;0.00;0.00;0.62;0.00;0.00;0.62;8.30;7.50;;;25.20;24.40;;;;;;2268168;61;20350;-64
2021/04/20 00:53:42;0.00;0.00;0.62;0.00;0.00;0.62;7.67;6.97;;;25.10;24.30;;;;;;2269053;61;20757;-66
2021/04/20 00:56:10;0.00;0.00;0.62;0.00;0.00;0.62;7.07;6.37;;;25.10;24.30;;;;;;2268584;61;20356;-66
2021/04/20 00:58:37;0.00;0.00;0.62;0.00;0.00;0.62;8.27;7.53;;;25.10;24.30;;;;;;2267732;61;20350;-66
2021/04/20 01:01:04;0.00;0.00;0.62;0.00;0.00;0.62;7.83;7.03;;;25.10;24.30;;;;;;2269660;61;20349;-66
2021/04/20 01:03:32;0.00;0.00;0.62;0.00;0.00;0.62;8.47;7.47;;;25.00;24.30;;;;;;2269807;61;20604;-66
2021/04/20 01:06:01;0.00;0.00;0.62;0.00;0.00;0.62;8.63;7.83;;;25.00;24.30;;;;;;2268889;61;20384;-67
2021/04/20 01:08:28;0.00;0.00;0.62;0.00;0.00;0.62;7.53;6.87;;;25.00;24.30;;;;;;2269753;61;20642;-65
2021/04/20 01:10:59;0.00;0.00;0.62;0.00;0.00;0.62;7.80;7.10;;;25.00;24.30;;;;;;2269768;61;20354;-63
2021/04/20 01:13:28;0.00;0.00;0.62;0.00;0.00;0.62;8.23;7.20;;;24.90;24.30;;;;;;2268878;61;20377;-67
2021/04/20 01:15:56;0.00;0.00;0.62;0.00;0.00;0.62;7.73;6.97;;;24.90;24.30;;;;;;2269658;61;20357;-66
2021/04/20 01:18:26;0.00;0.00;0.62;0.00;0.00;0.62;8.40;7.60;;;24.90;24.30;;;;;;2269765;61;20576;-66
2021/04/20 01:20:57;0.00;0.00;0.62;0.00;0.00;0.62;7.70;7.00;;;24.90;24.30;;;;;;2268744;61;20372;-66
2021/04/20 01:23:41;0.00;0.00;0.62;0.00;0.00;0.62;8.10;7.40;;;24.90;24.30;;;;;;2269185;61;20374;-66
2021/04/20 01:26:10;0.00;0.00;0.62;0.00;0.00;0.62;8.03;7.30;;;24.80;24.30;;;;;;2269692;61;20737;-66
2021/04/20 01:28:37;0.00;0.00;0.62;0.00;0.00;0.62;8.30;7.50;;;24.90;24.30;;;;;;2268752;61;20364;-67
2021/04/20 01:31:03;0.00;0.00;0.62;0.00;0.00;0.62;9.33;8.50;;;24.80;24.30;;;;;;2269746;61;20423;-65
2021/04/20 01:33:30;0.00;0.00;0.62;0.00;0.00;0.62;9.07;8.27;;;24.80;24.30;;;;;;2269714;61;20431;-65
2021/04/20 01:35:57;0.00;0.00;0.62;0.00;0.00;0.62;8.67;7.87;;;24.80;24.30;;;;;;2268583;61;20380;-66
2021/04/20 01:38:24;0.00;0.00;0.62;0.00;0.00;0.62;8.00;7.30;;;24.70;24.30;;;;;;2269732;61;20358;-64
2021/04/20 01:40:51;0.00;0.00;0.62;0.00;0.00;0.62;7.97;7.27;;;24.70;24.30;;;;;;2269593;61;20350;-63
2021/04/20 01:43:19;0.00;0.00;0.62;0.00;0.00;0.62;8.17;7.47;;;24.70;24.30;;;;;;2268776;61;20409;-66
2021/04/20 01:45:46;0.00;0.00;0.62;0.00;0.00;0.62;8.53;7.73;;;24.70;24.30;;;;;;2269665;61;20438;-65
2021/04/20 01:48:14;0.00;0.00;0.62;0.00;0.00;0.62;9.00;8.20;;;24.70;24.30;;;;;;2269741;61;20904;-67
2021/04/20 01:50:41;0.00;0.00;0.62;0.00;0.00;0.62;8.40;7.60;;;24.70;24.30;;;;;;2268585;61;20353;-65
2021/04/20 01:53:08;0.00;0.00;0.62;0.00;0.00;0.62;8.03;7.33;;;24.60;24.30;;;;;;2269639;61;20380;-67
2021/04/20 01:55:36;0.00;0.00;0.62;0.00;0.00;0.62;8.53;7.70;;;24.60;24.30;;;;;;2269038;61;20354;-64
2021/04/20 01:58:04;0.00;0.00;0.62;0.00;0.00;0.62;9.10;8.03;;;24.60;24.30;;;;;;2268213;61;20353;-63
2021/04/20 02:00:33;0.00;0.00;0.62;0.00;0.00;0.62;9.87;8.87;;;24.60;24.30;;;;;;2269502;61;20350;-66
2021/04/20 02:03:00;0.00;0.00;0.62;0.00;0.00;0.62;7.83;7.13;;;24.60;24.30;;;;;;2269425;61;20465;-65
2021/04/20 02:05:27;0.00;0.00;0.62;0.00;0.00;0.62;9.60;8.70;;;24.60;24.30;;;;;;2268708;61;20354;-64
2021/04/20 02:07:58;0.00;0.00;0.62;0.00;0.00;0.62;8.83;8.03;;;24.60;24.30;;;;;;2269647;61;20389;-63
2021/04/20 02:10:25;0.00;0.00;0.62;0.00;0.00;0.62;8.97;7.90;;;24.50;24.30;;;;;;2269323;61;20468;-67
2021/04/20 02:12:52;0.00;0.00;0.62;0.00;0.00;0.62;9.00;8.10;;;24.50;24.30;;;;;;2268731;61;20418;-63
2021/04/20 02:15:19;0.00;0.00;0.62;0.00;0.00;0.62;8.83;7.93;;;24.50;24.30;;;;;;2269459;61;20357;-68
2021/04/20 02:17:48;0.00;0.00;0.62;0.00;0.00;0.62;9.80;8.80;;;24.50;24.30;;;;;;2269428;61;20415;-68
2021/04/20 02:20:15;0.00;0.00;0.62;0.00;0.00;0.62;8.90;8.10;;;24.50;24.40;;;;;;2268730;61;20372;-66
2021/04/20 02:22:46;0.00;0.00;0.62;0.00;0.00;0.62;8.53;7.83;;;24.50;24.40;;;;;;2268943;61;20381;-65
2021/04/20 02:25:14;0.00;0.00;0.62;0.00;0.00;0.62;11.23;9.10;;;24.40;24.30;;;;;;2269372;61;20353;-66
2021/04/20 02:27:42;0.00;0.00;0.62;0.00;0.00;0.62;9.70;8.70;;;24.40;24.30;;;;;;2268235;61;20377;-63
2021/04/20 02:30:12;0.00;0.00;0.62;0.00;0.00;0.62;9.07;8.27;;;24.40;24.30;;;;;;2269489;61;20358;-66
2021/04/20 02:32:40;0.00;0.00;0.62;0.00;0.00;0.62;8.13;7.33;;;24.40;24.30;;;;;;2269267;61;20382;-64
2021/04/20 02:35:13;0.00;0.00;0.62;0.00;0.00;0.62;9.13;8.33;;;24.30;24.20;;;;;;2268683;61;20392;-65
2021/04/20 02:37:42;0.00;0.00;0.62;0.00;0.00;0.62;10.03;9.13;;;24.30;24.20;;;;;;2269602;61;20365;-64
2021/04/20 02:40:16;0.00;0.00;0.62;0.00;0.00;0.62;9.30;8.40;;;24.30;24.20;;;;;;2269402;61;20354;-63
2021/04/20 02:42:42;0.00;0.00;0.62;0.00;0.00;0.62;8.70;7.87;;;24.30;24.30;;;;;;2268719;61;20387;-65
2021/04/20 02:45:10;0.00;0.00;0.62;0.00;0.00;0.62;9.30;8.40;;;24.30;24.20;;;;;;2269385;61;20353;-66
2021/04/20 02:47:37;0.00;0.00;0.62;0.00;0.00;0.62;9.03;8.13;;;24.30;24.30;;;;;;2269376;61;20373;-65
2021/04/20 02:50:08;0.00;0.00;0.62;0.00;0.00;0.62;9.53;8.63;;;24.20;24.20;;;;;;2268736;61;20624;-66
2021/04/20 02:52:37;0.00;0.00;0.62;0.00;0.00;0.62;9.40;8.47;;;24.20;24.20;;;;;;2269295;61;20461;-63
2021/04/20 02:55:07;0.00;0.00;0.62;0.00;0.00;0.62;8.97;8.17;;;24.20;24.20;;;;;;2269287;61;20582;-67
2021/04/20 02:57:37;0.00;0.00;0.62;0.00;0.00;0.62;9.63;8.63;;;24.20;24.20;;;;;;2268941;61;20698;-64
2021/04/20 03:00:07;0.00;0.00;0.62;0.00;0.00;0.62;10.43;9.37;;;24.20;24.20;;;;;;2269262;61;20612;-66
2021/04/20 03:02:38;0.00;0.00;0.62;0.00;0.00;0.62;8.93;8.13;;;24.20;24.20;;;;;;2269309;61;20374;-64
2021/04/20 03:05:09;0.00;0.00;0.62;0.00;0.00;0.62;8.87;8.17;;;24.10;24.20;;;;;;2268788;61;20486;-66
2021/04/20 03:07:36;0.00;0.00;0.62;0.00;0.00;0.62;9.00;8.20;;;24.10;24.10;;;;;;2269390;61;20428;-66
2021/04/20 03:10:04;0.00;0.00;0.62;0.00;0.00;0.62;8.40;7.50;;;24.10;24.20;;;;;;2268745;61;20710;-64
2021/04/20 03:12:31;0.00;0.00;0.62;0.00;0.00;0.62;8.90;8.00;;;24.10;24.20;;;;;;2268641;61;20374;-64
2021/04/20 03:15:00;0.00;0.00;0.62;0.00;0.00;0.62;9.17;8.20;;;24.10;24.20;;;;;;2268706;61;20695;-65
2021/04/20 03:17:27;0.00;0.00;0.62;0.00;0.00;0.62;8.80;7.90;;;24.10;24.20;;;;;;2269148;61;20353;-66
2021/04/20 03:19:55;0.00;0.00;0.62;0.00;0.00;0.62;8.47;7.67;;;24.00;24.10;;;;;;2268787;61;20694;-63
2021/04/20 03:22:24;0.00;0.00;0.62;0.00;0.00;0.62;8.80;8.00;;;24.00;24.20;;;;;;2269295;61;20361;-64
2021/04/20 03:25:17;0.00;0.00;0.62;0.00;0.00;0.62;8.40;7.70;;;24.00;24.20;;;;;;2268946;61;20771;-65
2021/04/20 03:27:47;0.00;0.00;0.62;0.00;0.00;0.62;9.00;8.30;;;24.00;24.20;;;;;;2269347;61;20431;-64
2021/04/20 03:30:16;0.00;0.00;0.62;0.00;0.00;0.62;9.60;8.67;;;24.00;24.20;;;;;;2269655;61;20717;-67
2021/04/20 03:32:52;0.00;0.00;0.62;0.00;0.00;0.62;8.73;7.83;;;24.00;24.20;;;;;;2268728;61;20696;-63
2021/04/20 03:35:27;0.00;0.00;0.62;0.00;0.00;0.62;9.43;8.53;;;24.00;24.20;;;;;;2269291;61;20378;-66
2021/04/20 03:38:04;0.00;0.00;0.62;0.00;0.00;0.62;8.40;7.60;;;23.90;24.20;;;;;;2269560;61;20392;-66
2021/04/20 03:40:34;0.00;0.00;0.62;0.00;0.00;0.62;9.17;8.33;;;23.90;24.20;;;;;;2268513;61;20456;-65
2021/04/20 03:43:11;0.00;0.00;0.62;0.00;0.00;0.62;8.90;8.00;;;23.90;24.20;;;;;;2269015;61;20373;-65
2021/04/20 03:45:46;0.00;0.00;0.62;0.00;0.00;0.62;9.73;8.47;;;23.90;24.20;;;;;;2269410;61;20403;-66
2021/04/20 03:48:18;0.00;0.00;0.62;0.00;0.00;0.62;8.80;8.00;;;23.90;24.20;;;;;;2268569;61;20360;-65
2021/04/20 03:50:58;0.00;0.00;0.62;0.00;0.00;0.62;9.50;8.67;;;23.90;24.20;;;;;;2269434;61;20684;-63
2021/04/20 03:53:27;0.00;0.00;0.62;0.00;0.00;0.62;9.63;8.73;;;23.80;24.10;;;;;;2269324;61;20384;-64
2021/04/20 03:55:55;0.00;0.00;0.62;0.00;0.00;0.62;9.30;8.40;;;23.80;24.20;;;;;;2268523;61;20368;-67
2021/04/20 03:58:25;0.00;0.00;0.62;0.00;0.00;0.62;9.13;8.23;;;23.80;24.20;;;;;;2269519;61;20361;-65
2021/04/20 04:00:55;0.00;0.00;0.62;0.00;0.00;0.62;9.73;8.73;;;23.80;24.10;;;;;;2269356;61;20360;-67
2021/04/20 04:03:26;0.00;0.00;0.62;0.00;0.00;0.62;8.27;7.47;;;23.80;24.10;;;;;;2268555;61;20456;-63
2021/04/20 04:05:54;0.00;0.00;0.62;0.00;0.00;0.62;8.57;7.73;;;23.80;24.20;;;;;;2268925;61;20362;-66
2021/04/20 04:08:22;0.00;0.00;0.62;0.00;0.00;0.62;8.00;7.17;;;23.80;24.20;;;;;;2269492;61;20433;-66
2021/04/20 04:10:55;0.00;0.00;0.62;0.00;0.00;0.62;8.27;7.57;;;23.70;24.10;;;;;;2268373;61;20376;-64
2021/04/20 04:13:26;0.00;0.00;0.62;0.00;0.00;0.62;7.47;6.77;;;23.70;24.10;;;;;;2269541;61;20386;-64
2021/04/20 04:15:59;0.00;0.00;0.62;0.00;0.00;0.62;7.40;6.70;;;23.70;24.60;;;;;;2269417;61;20349;-66
2021/04/20 04:18:29;0.00;0.00;0.62;0.00;0.00;0.62;7.33;6.63;;;23.70;24.10;;;;;;2268475;61;20364;-65
2021/04/20 04:21:00;0.00;0.00;0.62;0.00;0.00;0.62;7.60;6.90;;;23.70;24.10;;;;;;2268801;61;20429;-66
2021/04/20 04:23:36;0.00;0.00;0.62;0.00;0.00;0.62;8.33;6.17;;;23.70;24.10;;;;;;2269399;61;20492;-65
2021/04/20 04:26:08;0.00;0.00;0.62;0.00;0.00;0.62;7.00;6.30;;;23.70;24.10;;;;;;2268511;61;20381;-66
2021/04/20 04:28:37;0.00;0.00;0.62;0.00;0.00;0.62;6.40;5.80;;;23.70;24.10;;;;;;2269481;61;20440;-65
2021/04/20 04:31:06;0.00;0.00;0.62;0.00;0.00;0.62;6.43;5.77;;;23.60;24.00;;;;;;2269205;61;20364;-66
2021/04/20 04:33:35;0.00;0.00;0.62;0.00;0.00;0.62;6.93;6.23;;;23.60;24.00;;;;;;2268517;61;20382;-65
2021/04/20 04:36:02;0.00;0.00;0.62;0.00;0.00;0.62;6.10;5.60;;;23.60;24.00;;;;;;2269634;61;20633;-65
2021/04/20 04:38:31;0.00;0.00;0.62;0.00;0.00;0.62;6.43;5.83;;;23.60;24.10;;;;;;2269944;61;20544;-66
2021/04/20 04:40:59;0.00;0.00;0.62;0.00;0.00;0.62;6.50;5.80;;;23.60;24.10;;;;;;2269177;61;20437;-65
2021/04/20 04:43:27;0.00;0.00;0.62;0.00;0.00;0.62;6.60;6.00;;;23.60;24.10;;;;;;2270082;61;20377;-64
2021/04/20 04:45:55;0.00;0.00;0.62;0.00;0.00;0.62;6.00;5.43;;;23.60;24.10;;;;;;2269933;61;20365;-63
2021/04/20 04:48:24;0.00;0.00;0.62;0.00;0.00;0.62;6.47;5.97;;;23.50;24.00;;;;;;2269245;61;20360;-65
2021/04/20 04:50:52;0.00;0.00;0.62;0.00;0.00;0.62;6.60;6.00;;;23.50;24.10;;;;;;2269957;61;20354;-64
2021/04/20 04:53:19;0.00;0.00;0.62;0.00;0.00;0.62;6.67;6.07;;;23.50;24.10;;;;;;2270005;61;20376;-64
2021/04/20 04:55:46;0.00;0.00;0.62;0.00;0.00;0.62;6.17;5.63;;;23.50;24.00;;;;;;2269105;61;20357;-64
2021/04/20 04:58:15;0.00;0.00;0.62;0.00;0.00;0.62;7.27;6.50;;;23.50;24.00;;;;;;2269999;61;20353;-64
2021/04/20 05:00:43;0.00;0.00;0.62;0.00;0.00;0.62;6.17;5.57;;;23.50;24.10;;;;;;2269796;61;20428;-63
2021/04/20 05:03:10;0.00;0.00;0.62;0.00;0.00;0.62;6.63;5.80;;;23.50;24.10;;;;;;2269197;61;20641;-64
2021/04/20 05:05:39;0.00;0.00;0.62;0.00;0.00;0.62;6.33;5.73;;;23.50;24.10;;;;;;2269947;61;20436;-64
2021/04/20 05:08:08;0.00;0.00;0.62;0.00;0.00;0.62;5.93;5.43;;;23.50;24.10;;;;;;2270004;61;20349;-63
2021/04/20 05:10:34;0.00;0.00;0.62;0.00;0.00;0.62;7.60;6.30;;;23.40;24.00;;;;;;2269137;61;20364;-64
2021/04/20 05:13:01;0.00;0.00;0.62;0.00;0.00;0.62;6.03;5.43;;;23.40;24.00;;;;;;2269996;61;20392;-65
2021/04/20 05:15:29;0.00;0.00;0.62;0.00;0.00;0.62;6.23;5.70;;;23.40;24.00;;;;;;2269975;61;20363;-65
2021/04/20 05:17:57;0.00;0.00;0.62;0.00;0.00;0.62;7.27;6.40;;;23.40;24.10;;;;;;2269174;61;20407;-62
2021/04/20 05:20:23;0.00;0.00;0.62;0.00;0.00;0.62;6.60;6.00;;;23.40;24.20;;;;;;2269816;61;20357;-65
2021/04/20 05:22:55;0.00;0.00;0.62;0.00;0.00;0.62;6.90;6.30;;;23.40;24.20;;;;;;2269465;61;20381;-66
2021/04/20 05:25:22;0.00;0.00;0.62;0.00;0.00;0.62;7.57;6.20;;;23.40;24.20;;;;;;2268852;61;20362;-67
2021/04/20 05:27:51;0.00;0.00;0.62;0.00;0.00;0.62;7.47;6.73;;;23.40;24.30;;;;;;2269978;61;20510;-66
2021/04/20 05:30:19;0.00;0.00;0.62;0.00;0.00;0.62;7.37;6.67;;;23.40;24.30;;;;;;2269707;61;20353;-66
2021/04/20 05:32:52;0.00;0.00;0.62;0.00;0.00;0.62;8.27;7.37;;;23.40;24.30;;;;;;2269012;61;20386;-63
2021/04/20 05:35:21;0.00;0.00;0.62;0.00;0.00;0.62;6.50;5.90;;;23.40;24.30;;;;;;2269828;61;20533;-64
2021/04/20 05:37:49;0.00;0.00;0.62;0.00;0.00;0.62;7.17;6.47;;;23.40;24.30;;;;;;2269884;61;20354;-60
2021/04/20 05:40:19;0.00;0.00;0.62;0.00;0.00;0.62;7.30;6.60;;;23.40;24.20;;;;;;2269072;61;20350;-63
2021/04/20 05:42:46;0.00;0.00;0.62;0.00;0.00;0.62;7.27;6.33;;;23.40;24.20;;;;;;2269771;61;20396;-63
2021/04/20 05:45:15;0.00;0.00;0.62;0.00;0.00;0.62;9.40;6.53;;;23.40;24.20;;;;;;2269634;61;20634;-62
2021/04/20 05:47:44;0.00;0.00;0.62;0.00;0.00;0.62;6.70;6.00;;;23.40;24.10;;;;;;2269209;61;20377;-63
2021/04/20 05:50:18;0.00;0.00;0.62;0.00;0.00;0.62;6.90;6.27;;;23.40;24.10;;;;;;2269986;61;20357;-61
2021/04/20 05:52:46;0.00;0.00;0.62;0.00;0.00;0.62;9.37;7.70;;;23.40;24.10;;;;;;2269686;61;20721;-64
2021/04/20 05:55:14;0.00;0.00;0.62;0.00;0.00;0.62;6.70;6.10;;;23.40;24.10;;;;;;2269263;61;20362;-65
2021/04/20 05:57:44;0.00;0.00;0.62;0.00;0.00;0.62;5.73;5.20;;;23.40;24.20;;;;;;2269916;61;20428;-61
2021/04/20 06:00:13;0.00;0.00;0.62;0.00;0.00;0.62;6.33;5.57;;;23.30;24.10;;;;;;2269684;61;20360;-62
2021/04/20 06:02:44;0.00;0.00;0.62;0.00;0.00;0.62;5.73;5.23;;;23.40;24.20;;;;;;2269191;61;20417;-64
2021/04/20 06:05:14;0.00;0.00;0.62;0.00;0.00;0.62;6.13;5.33;;;23.40;24.20;;;;;;2269863;61;20357;-62
2021/04/20 06:07:44;0.00;0.00;0.62;0.00;0.00;0.62;7.60;5.37;;;23.40;24.30;;;;;;2269771;61;20427;-63
2021/04/20 06:10:14;0.00;0.00;0.62;0.00;0.00;0.62;5.53;4.87;;;23.40;24.30;;;;;;2269463;61;20372;-65
2021/04/20 06:12:42;0.00;0.00;0.62;0.00;0.00;0.62;5.97;5.37;;;23.40;24.30;;;;;;2269804;61;20386;-59
2021/04/20 06:15:10;0.00;0.00;0.62;0.00;0.00;0.62;5.23;4.27;;;23.40;24.30;;;;;;2269461;61;20361;-65
2021/04/20 06:17:39;0.00;0.00;0.62;0.00;0.00;0.62;7.83;4.30;;;23.40;24.30;;;;;;2269369;61;20363;-63
2021/04/20 06:20:11;0.00;0.00;0.62;0.00;0.00;0.62;5.30;4.80;;;23.40;24.30;;;;;;2269850;61;20368;-62
2021/04/20 06:22:40;0.00;0.00;0.62;0.00;0.00;0.62;5.63;5.03;;;23.40;24.20;;;;;;2269516;61;20600;-61
2021/04/20 06:25:11;0.00;0.00;0.62;0.00;0.00;0.62;4.70;4.30;;;23.40;24.30;;;;;;2269406;61;20755;-64
2021/04/20 06:27:41;0.00;0.00;0.62;0.00;0.00;0.62;4.87;4.33;;;23.40;24.20;;;;;;2269870;61;20413;-62
2021/04/20 06:30:10;0.00;0.00;0.62;0.00;0.00;0.62;5.80;4.30;;;23.40;24.20;;;;;;2269354;61;20354;-61
2021/04/20 06:32:38;0.00;0.00;0.62;0.00;0.00;0.62;4.90;4.30;;;23.40;24.30;;;;;;2269446;61;20630;-64
2021/04/20 06:35:08;0.00;0.00;0.62;0.00;0.00;0.62;4.43;3.90;;;23.50;24.30;;;;;;2269785;61;20406;-62
2021/04/20 06:37:36;0.00;0.00;0.62;0.00;0.00;0.62;4.73;4.23;;;23.40;24.30;;;;;;2268719;61;20342;-63
2021/04/20 06:40:08;0.00;0.00;0.62;0.00;0.00;0.62;6.20;4.90;;;23.40;24.30;;;;;;2269661;61;20350;-64
2021/04/20 06:42:41;0.00;0.00;0.62;0.00;0.00;0.62;4.80;4.40;;;23.50;24.30;;;;;;2269269;61;20607;-66
2021/04/20 06:45:15;0.00;0.00;0.62;0.00;0.00;0.62;4.00;3.60;;;23.50;24.30;;;;;;2269199;61;20610;-63
2021/04/20 06:47:48;0.00;0.00;0.62;0.00;0.00;0.62;4.40;4.00;;;23.50;24.40;;;;;;2269757;61;20615;-65
2021/04/20 06:50:17;0.00;0.00;0.62;0.00;0.00;0.62;4.30;3.90;;;23.50;24.30;;;;;;2269834;61;20358;-64
2021/04/20 06:52:55;0.00;0.00;0.62;0.00;0.00;0.62;5.00;4.50;;;23.50;24.30;;;;;;2268612;61;20378;-60
2021/04/20 06:55:28;0.00;0.00;0.62;0.00;0.00;0.62;4.50;3.90;;;23.50;24.30;;;;;;2269767;61;20349;-61
2021/04/20 06:58:07;0.00;0.00;0.62;0.00;0.00;0.62;4.57;4.17;;;23.50;24.30;;;;;;2269674;61;20356;-62
2021/04/20 07:00:42;0.00;0.00;0.62;0.00;0.00;0.62;4.30;3.90;;;23.50;24.30;;;;;;2268888;61;20362;-61
2021/04/20 07:03:25;0.00;0.00;0.62;0.00;0.00;0.62;3.53;3.23;;;23.50;24.30;;;;;;2269729;61;20604;-63
2021/04/20 07:06:05;0.00;0.00;0.62;0.00;0.00;0.62;4.03;3.73;;;23.50;24.20;;;;;;2269809;61;20424;-65
2021/04/20 07:08:43;0.00;0.00;0.62;0.00;0.00;0.62;3.87;3.57;;;23.50;24.30;;;;;;2269109;61;20441;-65
2021/04/20 07:11:14;0.00;0.00;0.62;0.00;0.00;0.62;4.33;3.93;;;23.50;24.30;;;;;;2269846;61;20357;-64
2021/04/20 07:13:46;0.00;0.00;0.62;0.00;0.00;0.62;5.20;3.80;;;23.60;24.30;;;;;;2269759;61;20369;-66
2021/04/20 07:16:25;0.00;0.00;0.62;0.00;0.00;0.62;3.63;3.30;;;23.60;24.30;;;;;;2268974;61;20697;-66
2021/04/20 07:19:18;0.00;0.00;0.62;0.00;0.00;0.62;4.20;3.80;;;23.60;24.30;;;;;;2269678;61;20417;-64
2021/04/20 07:22:15;0.00;0.00;0.62;0.00;0.00;0.62;4.37;3.97;;;23.60;24.30;;;;;;2269461;61;20361;-64
2021/04/20 07:25:06;0.00;0.00;0.62;0.00;0.00;0.62;4.20;3.20;;;23.60;24.20;;;;;;2263183;61;20373;-61
2021/04/20 07:27:49;0.00;0.00;0.62;0.00;0.00;0.62;3.77;3.43;;;23.60;24.20;;;;;;2269599;61;20381;-64
2021/04/20 07:30:23;0.00;0.00;0.62;0.00;0.00;0.62;4.00;3.30;;;23.60;24.20;;;;;;2268940;61;20686;-61
2021/04/20 07:33:18;0.00;0.00;0.62;0.00;0.00;0.62;4.13;3.50;;;23.60;24.20;;;;;;2269589;61;20397;-60
2021/04/20 07:35:56;0.00;0.00;0.62;0.00;0.00;0.62;3.63;3.33;;;23.60;24.20;;;;;;2269143;61;20353;-68
2021/04/20 07:38:40;0.00;0.00;0.62;0.00;0.00;0.62;3.57;3.27;;;23.60;24.20;;;;;;2268891;61;20356;-61
2021/04/20 07:41:19;0.00;0.00;0.62;0.00;0.00;0.62;5.17;3.90;;;23.60;24.20;;;;;;2269434;61;20642;-64
2021/04/20 07:44:01;0.00;0.00;0.62;0.00;0.00;0.62;3.40;3.00;;;23.60;24.20;;;;;;2269616;61;20405;-64
2021/04/20 07:46:39;0.00;0.00;0.62;0.00;0.00;0.62;3.93;3.53;;;23.70;24.30;;;;;;2268580;61;20715;-63
2021/04/20 07:49:21;0.00;0.00;0.62;0.00;0.00;0.62;4.77;3.17;;;23.70;24.30;;;;;;2269607;61;20365;-65
2021/04/20 07:52:01;0.00;0.00;0.62;0.00;0.00;0.62;3.43;3.13;;;23.70;24.20;;;;;;2269143;61;20678;-63
2021/04/20 07:54:45;0.00;0.00;0.62;0.00;0.00;0.62;3.30;3.00;;;23.70;24.20;;;;;;2269338;61;20602;-63
2021/04/20 07:57:23;0.00;0.00;0.62;0.00;0.00;0.62;3.13;2.90;;;23.70;24.20;;;;;;2269617;61;20349;-61
2021/04/20 08:00:00;0.00;0.00;0.62;0.00;0.00;0.62;3.50;3.20;;;23.70;24.20;;;;;;2268897;61;20361;-67
2021/04/20 08:02:39;0.00;0.00;0.62;0.00;0.00;0.62;3.30;3.00;;;23.70;24.20;;;;;;2269412;61;20377;-63
2021/04/20 08:05:15;0.00;0.00;0.62;0.00;0.00;0.62;3.73;3.13;;;23.70;24.20;;;;;;2269605;61;20411;-64
2021/04/20 08:07:50;0.00;0.00;0.62;0.00;0.00;0.62;3.10;2.80;;;23.70;24.20;;;;;;2268813;61;20416;-63
2021/04/20 08:10:18;0.00;0.00;0.62;0.00;0.00;0.62;3.60;3.30;;;23.80;24.30;;;;;;2269371;61;20410;-63
2021/04/20 08:12:55;0.00;0.00;0.62;0.00;0.00;0.62;3.87;3.17;;;23.80;24.30;;;;;;2269532;61;20377;-64
2021/04/20 08:15:33;0.00;0.00;0.62;0.00;0.00;0.62;2.90;2.57;;;23.80;24.30;;;;;;2268709;61;20360;-64
2021/04/20 08:18:07;0.00;0.00;0.62;0.00;0.00;0.62;2.93;2.73;;;23.80;24.20;;;;;;2269533;61;20356;-63
2021/04/20 08:20:35;0.00;0.00;0.62;0.00;0.00;0.62;3.43;3.13;;;23.80;24.20;;;;;;2269455;61;20403;-61
2021/04/20 08:23:04;0.00;0.00;0.62;0.00;0.00;0.62;2.73;2.53;;;23.80;24.20;;;;;;2268912;61;20409;-63
2021/04/20 08:25:37;0.00;0.00;0.62;0.00;0.00;0.62;3.50;3.13;;;23.80;24.20;;;;;;2269521;61;20397;-63
2021/04/20 08:28:14;0.00;0.00;0.62;0.00;0.00;0.62;3.43;2.93;;;23.90;24.30;;;;;;2269479;61;20369;-63
2021/04/20 08:30:47;0.00;0.00;0.62;0.00;0.00;0.62;3.20;2.90;;;23.90;24.30;;;;;;2268371;61;20395;-64
2021/04/20 08:33:18;0.00;0.00;0.62;0.00;0.00;0.62;3.20;2.90;;;23.90;24.20;;;;;;2269634;61;20407;-61
2021/04/20 08:35:48;0.00;0.00;0.62;0.00;0.00;0.62;3.23;2.93;;;23.90;24.30;;;;;;2269324;61;20369;-61
2021/04/20 08:38:34;0.00;0.00;0.62;0.00;0.00;0.62;2.63;2.33;;;23.90;24.20;;;;;;2269049;61;20353;-65
2021/04/20 08:41:07;0.00;0.00;0.62;0.00;0.00;0.62;2.93;2.63;;;23.90;24.20;;;;;;2269628;61;20608;-62
2021/04/20 08:43:46;0.00;0.00;0.62;0.00;0.00;0.62;2.93;2.50;;;23.90;24.20;;;;;;2268888;61;20373;-64
2021/04/20 08:46:28;0.00;0.00;0.62;0.00;0.00;0.62;3.50;3.00;;;24.00;24.30;;;;;;2269427;61;20358;-65
2021/04/20 08:49:08;0.00;0.00;0.62;0.00;0.00;0.62;2.73;2.40;;;24.00;24.30;;;;;;2269634;61;20356;-65
2021/04/20 08:51:48;0.00;0.00;0.62;0.00;0.00;0.62;3.30;2.40;;;24.00;24.30;;;;;;2268661;61;20361;-62
2021/04/20 08:54:25;0.00;0.00;0.62;0.00;0.00;0.62;3.53;3.03;;;24.00;24.30;;;;;;2269531;61;20369;-62
2021/04/20 08:57:07;0.00;0.00;0.62;0.00;0.00;0.62;2.53;2.33;;;24.00;24.30;;;;;;2269572;61;20349;-66
2021/04/20 08:59:52;0.00;0.00;0.62;0.00;0.00;0.62;2.87;2.53;;;24.00;24.30;;;;;;2268555;61;20357;-64
2021/04/20 09:02:38;0.00;0.00;0.62;0.00;0.00;0.62;2.90;2.43;;;24.00;24.30;;;;;;2269407;61;20357;-63
2021/04/20 09:05:17;0.00;0.00;0.62;0.00;0.00;0.62;2.60;2.40;;;24.00;24.30;;;;;;2269266;61;20357;-59
2021/04/20 09:08:04;0.00;0.00;0.62;0.00;0.00;0.62;2.50;2.30;;;24.10;24.30;;;;;;2269096;61;20678;-60
2021/04/20 09:10:40;0.00;0.00;0.62;0.00;0.00;0.62;3.00;2.50;;;24.10;24.30;;;;;;2269413;61;20346;-61
2021/04/20 09:13:13;0.00;0.00;0.62;0.00;0.00;0.62;3.23;2.83;;;24.10;24.30;;;;;;2268739;61;20377;-61
2021/04/20 09:15:47;0.00;0.00;0.62;0.00;0.00;0.62;3.17;2.63;;;24.10;24.30;;;;;;2269235;61;20622;-62
2021/04/20 09:18:18;0.00;0.00;0.62;0.00;0.00;0.62;4.97;3.57;;;24.20;24.30;;;;;;2269379;61;20391;-64
2021/04/20 09:20:56;0.00;0.00;0.62;0.00;0.00;0.62;2.67;2.33;;;24.20;24.30;;;;;;2269162;61;20365;-62
2021/04/20 09:23:38;0.00;0.00;0.62;0.00;0.00;0.62;3.30;2.50;;;24.20;24.30;;;;;;2270074;61;20381;-65
2021/04/20 09:26:38;0.00;0.00;0.62;0.00;0.00;0.62;3.23;2.60;;;24.20;24.30;;;;;;2269961;61;20357;-63
2021/04/20 09:29:14;0.00;0.00;0.62;0.00;0.00;0.62;3.50;2.33;;;24.20;24.80;;;;;;2269380;61;20445;-64
2021/04/20 09:31:52;0.00;0.00;0.62;0.00;0.00;0.62;3.67;3.13;;;24.30;24.30;;;;;;2270057;61;20346;-62
2021/04/20 09:34:21;0.00;0.00;0.62;0.00;0.00;0.62;2.83;2.60;;;24.30;24.30;;;;;;2269534;61;20468;-60
2021/04/20 09:36:51;0.00;0.00;0.62;0.00;0.00;0.62;2.40;2.00;;;24.30;24.30;;;;;;2269396;61;20649;-62
2021/04/20 09:39:20;0.00;0.00;0.62;0.00;0.00;0.62;3.00;2.70;;;24.30;24.20;;;;;;2269813;61;20707;-62
2021/04/20 09:41:47;0.00;0.00;0.62;0.00;0.00;0.62;2.70;2.50;;;24.30;24.20;;;;;;2269956;61;20578;-62
2021/04/20 09:44:33;0.00;0.00;0.62;0.00;0.00;0.62;2.63;2.43;;;24.40;24.30;;;;;;2269292;61;20374;-64
2021/04/20 09:47:42;0.00;0.00;0.62;0.00;0.00;0.62;3.47;2.90;;;24.40;24.30;;;;;;2269982;61;20405;-59
2021/04/20 09:50:20;0.00;0.00;0.62;0.00;0.00;0.62;2.70;2.40;;;24.40;24.20;;;;;;2264040;61;20426;-59
2021/04/20 09:53:04;0.00;0.00;0.62;0.00;0.00;0.62;3.27;2.33;;;24.50;24.30;;;;;;2270011;61;20374;-60
2021/04/20 09:55:36;0.00;0.00;0.62;0.00;0.00;0.62;2.60;2.07;;;24.50;24.30;;;;;;2270099;61;20366;-65
2021/04/20 09:58:05;0.00;0.00;0.62;0.00;0.00;0.62;2.53;2.23;;;24.50;24.20;;;;;;2269292;61;20361;-60
2021/04/20 10:00:33;0.00;0.00;0.62;0.00;0.00;0.62;2.40;2.20;;;24.60;24.30;;;;;;2269361;61;20364;-61